Time;durP1;ratioP1;P1;durP2;ratioP2;P2;SDS_P1;SDS_P2;PMS_P1;PMS_P2;Temp;Humidity;BMP_temperature;BMP_pressure;BME280_temperature;BME280_humidity;BME280_pressure;Samples;Min_cycle;Max_cycle;Signal;HPM_P1;HPM_P2
2023/01/01 00:01:12;;;;;;;10.82;8.60;;;21.00;58.80;;;;;;6083526;23;20019;-62
2023/01/01 00:03:38;;;;;;;10.45;8.98;;;21.10;58.90;;;;;;6086192;23;20025;-60
2023/01/01 00:06:09;;;;;;;11.75;8.63;;;21.10;58.90;;;;;;6085063;23;20022;-60
2023/01/01 00:08:35;;;;;;;;;;;21.00;58.90;;;;;;6084381;23;20061;-62
2023/01/01 00:11:02;;;;;;;10.30;9.25;;;21.00;58.80;;;;;;6085764;23;19924;-61
2023/01/01 00:13:28;;;;;;;10.77;9.23;;;21.00;59.10;;;;;;6085909;23;20021;-61
2023/01/01 00:15:54;;;;;;;10.90;9.13;;;21.00;59.10;;;;;;6083976;23;20708;-61
2023/01/01 00:18:20;;;;;;;10.63;9.35;;;21.00;59.00;;;;;;6082969;23;20017;-60
2023/01/01 00:20:45;;;;;;;10.63;9.52;;;21.00;59.00;;;;;;6084935;23;20097;-62
2023/01/01 00:23:11;;;;;;;12.55;9.73;;;21.00;59.00;;;;;;6085870;23;20454;-61
2023/01/01 00:25:39;;;;;;;10.68;9.55;;;21.00;59.00;;;;;;6086299;23;20018;-61
2023/01/01 00:28:05;;;;;;;11.07;9.82;;;21.00;58.90;;;;;;6084846;23;20062;-64
2023/01/01 00:30:31;;;;;;;11.45;9.23;;;21.00;58.90;;;;;;6085262;23;20045;-61
2023/01/01 00:32:57;;;;;;;11.25;8.50;;;21.00;58.90;;;;;;6085678;23;20012;-60
2023/01/01 00:35:26;;;;;;;11.85;9.18;;;20.90;58.80;;;;;;6084719;23;20025;-59
2023/01/01 00:37:52;;;;;;;12.73;8.25;;;21.00;58.70;;;;;;6083637;23;20022;-61
2023/01/01 00:40:18;;;;;;;11.40;8.75;;;20.90;58.70;;;;;;6086352;23;20023;-62
2023/01/01 00:42:44;;;;;;;10.50;9.25;;;20.90;58.80;;;;;;6087924;23;20145;-62
2023/01/01 00:45:10;;;;;;;11.13;9.00;;;20.90;58.70;;;;;;6088094;23;20097;-60
2023/01/01 00:47:35;;;;;;;9.45;8.43;;;20.90;58.70;;;;;;6087513;23;20022;-61
2023/01/01 00:50:02;;;;;;;11.23;8.50;;;20.90;58.60;;;;;;6087540;23;20439;-61
2023/01/01 00:52:27;;;;;;;9.65;8.50;;;20.90;58.50;;;;;;6087578;23;20014;-61
2023/01/01 00:54:53;;;;;;;14.25;8.88;;;20.90;58.40;;;;;;6086060;23;20022;-60
2023/01/01 00:57:18;;;;;;;10.35;8.65;;;20.90;58.40;;;;;;6086172;23;20021;-61
2023/01/01 00:59:44;;;;;;;8.77;7.65;;;20.90;58.40;;;;;;6085076;23;20018;-60
2023/01/01 01:02:10;;;;;;;9.75;8.18;;;20.90;58.40;;;;;;6087866;23;20018;-60
2023/01/01 01:04:35;;;;;;;12.13;9.10;;;20.90;58.40;;;;;;6088662;23;20475;-63
2023/01/01 01:07:01;;;;;;;13.25;8.88;;;20.80;58.40;;;;;;6086736;23;20025;-61
2023/01/01 01:09:27;;;;;;;9.88;8.10;;;20.90;58.40;;;;;;6083038;23;20029;-64
2023/01/01 01:11:52;;;;;;;10.43;7.28;;;20.90;58.60;;;;;;6059281;23;20352;-64
2023/01/01 01:14:18;;;;;;;12.73;8.07;;;20.90;59.50;;;;;;6085239;23;20010;-60
2023/01/01 01:16:44;;;;;;;10.88;7.75;;;20.90;58.90;;;;;;6084027;23;20014;-60
2023/01/01 01:19:14;;;;;;;11.55;8.18;;;20.90;58.80;;;;;;6084118;23;20017;-63
2023/01/01 01:21:39;;;;;;;11.03;8.17;;;20.90;58.80;;;;;;6087197;23;20317;-63
2023/01/01 01:24:05;;;;;;;9.35;8.05;;;20.90;58.70;;;;;;6085408;23;20036;-62
2023/01/01 01:26:32;;;;;;;12.18;8.35;;;20.90;58.60;;;;;;6085598;23;20033;-63
2023/01/01 01:28:58;;;;;;;9.40;8.23;;;20.80;58.50;;;;;;6085733;23;20539;-63
2023/01/01 01:31:28;;;;;;;10.45;8.45;;;20.80;58.50;;;;;;6087726;23;20045;-63
2023/01/01 01:33:54;;;;;;;9.73;8.20;;;20.80;58.60;;;;;;6086320;23;20101;-63
2023/01/01 01:36:20;;;;;;;12.00;7.95;;;20.80;58.60;;;;;;6087376;23;20046;-62
2023/01/01 01:38:46;;;;;;;11.88;8.55;;;20.80;58.60;;;;;;6062229;23;20363;-64
2023/01/01 01:41:17;;;;;;;12.90;7.60;;;20.80;58.70;;;;;;6061574;23;20060;-64
2023/01/01 01:43:50;;;;;;;8.57;7.70;;;20.80;58.70;;;;;;6088230;23;20018;-63
2023/01/01 01:46:24;;;;;;;12.02;7.68;;;20.80;58.70;;;;;;6087099;23;20360;-61
2023/01/01 01:48:52;;;;;;;11.85;7.47;;;20.80;58.60;;;;;;6088888;23;20018;-63
2023/01/01 01:51:24;;;;;;;9.48;6.70;;;20.70;58.60;;;;;;6087658;23;20885;-63
2023/01/01 01:53:57;;;;;;;8.25;7.13;;;20.70;58.50;;;;;;6086158;23;20018;-62
2023/01/01 01:56:31;;;;;;;10.10;7.63;;;20.70;58.50;;;;;;6086003;23;20015;-62
2023/01/01 01:58:57;;;;;;;8.95;7.53;;;20.70;58.50;;;;;;6087152;23;20093;-63
2023/01/01 02:01:24;;;;;;;8.45;6.32;;;20.70;58.50;;;;;;6087201;23;20063;-63
2023/01/01 02:03:59;;;;;;;9.02;7.13;;;20.70;58.50;;;;;;6086243;23;20045;-65
2023/01/01 02:06:30;;;;;;;7.97;7.25;;;20.70;58.50;;;;;;6085374;23;20097;-61
2023/01/01 02:08:59;;;;;;;10.40;7.53;;;20.70;58.50;;;;;;6086057;23;20022;-66
2023/01/01 02:11:25;;;;;;;7.95;7.13;;;20.70;58.50;;;;;;6087231;23;20021;-62
2023/01/01 02:13:51;;;;;;;9.63;7.78;;;20.70;58.40;;;;;;6086222;23;20022;-62
2023/01/01 02:16:26;;;;;;;9.70;8.02;;;20.70;58.40;;;;;;6085084;23;20014;-63
2023/01/01 02:18:51;;;;;;;10.02;6.70;;;20.70;58.30;;;;;;6086714;23;20026;-63
2023/01/01 02:21:36;;;;;;;7.95;6.97;;;20.60;58.30;;;;;;6084093;23;20022;-62
2023/01/01 02:24:13;;;;;;;7.90;7.10;;;20.60;58.20;;;;;;6083810;23;20029;-63
2023/01/01 02:26:48;;;;;;;9.13;6.90;;;20.60;58.20;;;;;;6087217;23;20105;-66
2023/01/01 02:29:33;;;;;;;9.23;7.32;;;20.60;58.20;;;;;;6087606;23;20066;-63
2023/01/01 02:32:04;;;;;;;10.45;7.13;;;20.60;58.20;;;;;;6086154;23;20022;-62
2023/01/01 02:34:37;;;;;;;9.10;6.93;;;20.60;58.20;;;;;;6087141;23;20014;-62
2023/01/01 02:37:07;;;;;;;7.85;6.38;;;20.60;58.20;;;;;;6086802;23;20112;-63
2023/01/01 02:39:36;;;;;;;8.00;6.57;;;20.60;58.20;;;;;;6085734;23;20138;-63
2023/01/01 02:42:04;;;;;;;8.70;7.18;;;20.60;58.20;;;;;;6084204;23;20033;-63
2023/01/01 02:44:33;;;;;;;7.82;6.97;;;20.60;58.20;;;;;;6086691;23;20104;-66
2023/01/01 02:47:13;;;;;;;9.38;6.80;;;20.60;58.10;;;;;;6086922;23;20022;-64
2023/01/01 02:49:52;;;;;;;8.25;6.25;;;20.60;58.10;;;;;;6086909;23;20120;-64
2023/01/01 02:52:33;;;;;;;10.65;6.80;;;20.60;58.10;;;;;;6083275;23;20022;-63
2023/01/01 02:55:07;;;;;;;8.32;5.97;;;20.60;58.10;;;;;;6085781;23;20022;-63
2023/01/01 02:57:37;;;;;;;8.32;6.15;;;20.60;58.10;;;;;;6060466;23;20022;-61
2023/01/01 03:03:18;;;;;;;6.93;5.85;;;20.50;58.00;;;;;;6052633;23;20532;-63
2023/01/01 03:06:21;;;;;;;7.38;5.80;;;20.50;58.00;;;;;;6082114;23;20019;-63
2023/01/01 03:08:59;;;;;;;7.60;5.32;;;20.50;57.90;;;;;;6084829;23;20014;-63
2023/01/01 03:11:49;;;;;;;7.25;5.18;;;20.50;57.90;;;;;;6086120;23;20022;-61
2023/01/01 03:14:18;;;;;;;7.38;5.68;;;20.50;57.90;;;;;;6060286;23;20418;-62
2023/01/01 03:16:55;;;;;;;7.00;6.00;;;20.50;57.90;;;;;;6085732;23;20014;-62
2023/01/01 03:19:36;;;;;;;9.38;5.38;;;20.50;57.90;;;;;;6086374;23;20010;-63
2023/01/01 03:22:08;;;;;;;6.65;5.40;;;20.50;57.90;;;;;;6085948;23;20037;-63
2023/01/01 03:24:51;;;;;;;6.18;5.15;;;20.50;57.90;;;;;;6084589;23;20053;-62
2023/01/01 03:27:25;;;;;;;5.78;4.70;;;20.50;57.80;;;;;;6085992;23;20018;-63
2023/01/01 03:29:55;;;;;;;6.55;4.32;;;20.50;57.80;;;;;;6084551;23;20020;-62
2023/01/01 03:35:20;;;;;;;5.82;4.53;;;20.50;58.40;;;;;;6086141;23;20022;-60
2023/01/01 03:37:50;;;;;;;5.40;4.80;;;20.40;57.60;;;;;;6059973;23;20057;-63
2023/01/01 03:40:18;;;;;;;5.60;4.60;;;20.50;57.60;;;;;;6085982;23;20101;-62
2023/01/01 03:42:50;;;;;;;5.75;4.72;;;20.50;57.60;;;;;;6061341;23;20024;-62
2023/01/01 03:45:15;;;;;;;4.57;3.88;;;20.50;57.50;;;;;;6083792;23;20022;-64
2023/01/01 03:47:42;;;;;;;5.22;3.92;;;20.50;57.40;;;;;;6086439;23;20061;-63
2023/01/01 03:50:08;;;;;;;4.90;3.67;;;20.40;57.20;;;;;;6084908;23;20045;-62
2023/01/01 03:52:39;;;;;;;5.55;4.20;;;20.40;57.20;;;;;;6085774;23;20038;-63
2023/01/01 03:55:25;;;;;;;5.43;3.85;;;20.40;57.20;;;;;;6086262;23;20018;-62
2023/01/01 03:58:23;;;;;;;5.60;3.45;;;20.40;57.10;;;;;;6086193;23;20019;-63
2023/01/01 04:01:00;;;;;;;4.22;3.35;;;20.40;57.00;;;;;;6085378;23;20328;-62
2023/01/01 04:03:28;;;;;;;7.57;3.80;;;20.40;57.10;;;;;;6087324;23;20018;-63
2023/01/01 04:05:54;;;;;;;5.20;3.80;;;20.40;57.10;;;;;;6083403;23;20455;-62
2023/01/01 04:08:20;;;;;;;5.30;3.55;;;20.40;57.00;;;;;;6085745;23;20014;-64
2023/01/01 04:12:00;;;;;;;6.80;3.60;;;20.40;57.00;;;;;;6086968;23;20029;-62
2023/01/01 04:13:48;;;;;;;4.68;3.35;;;20.40;57.00;;;;;;6085786;23;20026;-63
2023/01/01 04:16:13;;;;;;;4.70;3.38;;;20.40;56.90;;;;;;6084415;23;20204;-63
2023/01/01 04:18:39;;;;;;;7.80;3.50;;;20.40;56.90;;;;;;6084189;23;20017;-62
2023/01/01 04:21:05;;;;;;;5.05;3.30;;;20.40;56.80;;;;;;6084127;23;20335;-58
2023/01/01 04:23:30;;;;;;;6.95;3.30;;;20.40;56.80;;;;;;6085942;23;20025;-63
2023/01/01 04:25:56;;;;;;;5.15;3.22;;;20.40;56.70;;;;;;6086129;23;20489;-62
2023/01/01 04:28:22;;;;;;;3.50;2.85;;;20.40;56.70;;;;;;6083609;23;20656;-63
2023/01/01 04:30:47;;;;;;;4.45;2.80;;;20.40;56.60;;;;;;6084336;23;20371;-63
2023/01/01 04:33:13;;;;;;;5.13;2.90;;;20.30;56.50;;;;;;6086251;23;20074;-63
2023/01/01 04:35:38;;;;;;;4.15;2.60;;;20.40;56.50;;;;;;6086666;23;20014;-62
2023/01/01 04:38:05;;;;;;;4.38;2.72;;;20.40;56.50;;;;;;6085068;23;20016;-62
2023/01/01 04:40:31;;;;;;;4.32;2.70;;;20.30;56.30;;;;;;6059761;23;20113;-62
2023/01/01 04:42:56;;;;;;;3.92;2.75;;;20.30;56.40;;;;;;6085814;23;20332;-62
2023/01/01 04:45:22;;;;;;;4.25;2.50;;;20.30;56.30;;;;;;6085221;23;20018;-64
2023/01/01 04:47:47;;;;;;;3.42;2.75;;;20.30;56.20;;;;;;6083943;23;20014;-62
2023/01/01 04:50:13;;;;;;;4.60;2.75;;;20.30;56.30;;;;;;6084209;23;20483;-63
2023/01/01 04:52:39;;;;;;;3.45;2.63;;;20.30;56.20;;;;;;6085173;23;20029;-62
2023/01/01 04:55:05;;;;;;;3.90;2.40;;;20.30;56.10;;;;;;6086233;23;20035;-63
2023/01/01 04:57:31;;;;;;;4.40;2.30;;;20.30;56.10;;;;;;6083773;23;20007;-64
2023/01/01 04:59:56;;;;;;;5.22;2.50;;;20.30;56.00;;;;;;6086188;23;20149;-62
2023/01/01 05:02:22;;;;;;;4.55;2.50;;;20.30;56.00;;;;;;6084907;23;20085;-62
2023/01/01 05:04:48;;;;;;;2.58;2.20;;;20.30;56.00;;;;;;6086006;23;20469;-60
2023/01/01 05:07:13;;;;;;;4.22;2.60;;;20.30;55.90;;;;;;6085647;23;20128;-63
2023/01/01 05:09:39;;;;;;;3.38;2.13;;;20.30;55.90;;;;;;6085803;23;20018;-62
2023/01/01 05:12:05;;;;;;;3.80;2.45;;;20.30;55.90;;;;;;6083749;23;20021;-62
2023/01/01 05:14:30;;;;;;;3.65;2.17;;;20.30;55.90;;;;;;6087172;23;20015;-64
2023/01/01 05:16:56;;;;;;;4.13;2.47;;;20.30;55.90;;;;;;6083747;23;20097;-63
2023/01/01 05:19:22;;;;;;;2.65;2.30;;;20.30;55.80;;;;;;6086197;23;20541;-63
2023/01/01 05:21:47;;;;;;;4.20;2.17;;;20.30;55.80;;;;;;6058178;23;20024;-61
2023/01/01 05:24:13;;;;;;;4.75;2.50;;;20.30;55.70;;;;;;6085675;23;20018;-62
2023/01/01 05:26:42;;;;;;;3.22;2.00;;;20.30;55.70;;;;;;6086544;23;20054;-63
2023/01/01 05:29:08;;;;;;;3.60;2.22;;;20.30;55.80;;;;;;6086218;23;20088;-61
2023/01/01 05:31:35;;;;;;;4.85;2.05;;;20.30;55.80;;;;;;6086058;23;20109;-60
2023/01/01 05:34:02;;;;;;;3.30;1.98;;;20.30;55.70;;;;;;6087919;23;20318;-65
2023/01/01 05:36:30;;;;;;;2.75;1.95;;;20.30;55.80;;;;;;6087911;23;20018;-62
2023/01/01 05:38:57;;;;;;;2.92;2.10;;;20.20;55.70;;;;;;6087122;23;20021;-62
2023/01/01 05:41:22;;;;;;;2.92;2.30;;;20.30;55.80;;;;;;6087246;23;20018;-65
2023/01/01 05:43:49;;;;;;;2.47;1.67;;;20.30;55.90;;;;;;6085514;23;20904;-62
2023/01/01 05:46:18;;;;;;;3.20;2.15;;;20.30;55.70;;;;;;6086703;23;20517;-62
2023/01/01 05:48:44;;;;;;;3.83;2.00;;;20.30;55.70;;;;;;6086921;23;20395;-62
2023/01/01 05:51:14;;;;;;;4.18;1.80;;;20.20;55.70;;;;;;6061315;23;20025;-63
2023/01/01 05:53:40;;;;;;;3.43;2.13;;;20.20;55.60;;;;;;6086240;23;20438;-61
2023/01/01 05:56:07;;;;;;;2.85;1.70;;;20.20;55.50;;;;;;6085992;23;20242;-61
2023/01/01 05:58:34;;;;;;;2.00;1.77;;;20.20;55.50;;;;;;6085090;23;20033;-59
2023/01/01 06:01:21;;;;;;;2.40;1.40;;;20.20;55.50;;;;;;6085671;23;20466;-61
2023/01/01 06:03:47;;;;;;;2.55;1.50;;;20.20;55.40;;;;;;6087638;23;20015;-61
2023/01/01 06:06:18;;;;;;;2.63;1.45;;;20.20;55.40;;;;;;6087196;23;20029;-62
2023/01/01 06:09:01;;;;;;;2.50;1.65;;;20.20;55.30;;;;;;6086722;23;20022;-62
2023/01/01 06:11:28;;;;;;;3.15;1.65;;;20.20;55.20;;;;;;6087264;23;20081;-61
2023/01/01 06:13:55;;;;;;;2.35;1.45;;;20.20;55.20;;;;;;6085877;23;20121;-63
2023/01/01 06:16:22;;;;;;;1.88;1.60;;;20.20;55.20;;;;;;6085463;23;20022;-64
2023/01/01 06:18:48;;;;;;;3.05;1.52;;;20.20;55.20;;;;;;6087279;23;20006;-59
2023/01/01 06:21:16;;;;;;;1.95;1.40;;;20.20;55.20;;;;;;6086981;23;20025;-65
2023/01/01 06:23:42;;;;;;;2.42;1.67;;;20.20;55.20;;;;;;6087142;23;20030;-62
2023/01/01 06:26:11;;;;;;;6.38;1.42;;;20.20;55.20;;;;;;6087658;23;20011;-61
2023/01/01 06:28:37;;;;;;;2.53;1.30;;;20.20;55.20;;;;;;6086407;23;20018;-63
2023/01/01 06:31:05;;;;;;;3.40;1.33;;;20.20;55.10;;;;;;6086228;23;20022;-61
2023/01/01 06:33:31;;;;;;;2.58;1.40;;;20.20;55.10;;;;;;6086228;23;20018;-62
2023/01/01 06:35:58;;;;;;;2.47;1.42;;;20.20;55.00;;;;;;6087618;23;20208;-61
2023/01/01 06:38:24;;;;;;;2.20;1.30;;;20.20;54.90;;;;;;6061002;23;20462;-61
2023/01/01 06:40:56;;;;;;;1.95;1.33;;;20.10;54.80;;;;;;6084921;23;20053;-61
2023/01/01 06:43:22;;;;;;;3.63;1.25;;;20.20;54.80;;;;;;6084965;23;20018;-61
2023/01/01 06:45:48;;;;;;;1.75;1.35;;;20.10;54.70;;;;;;6085480;23;20074;-64
2023/01/01 06:48:13;;;;;;;2.42;1.30;;;20.10;54.70;;;;;;6084334;23;20050;-61
2023/01/01 06:50:39;;;;;;;2.47;1.23;;;20.10;54.70;;;;;;6085764;23;20025;-62
2023/01/01 06:53:04;;;;;;;2.72;1.20;;;20.10;54.70;;;;;;6086211;23;20014;-61
2023/01/01 06:55:30;;;;;;;2.58;1.35;;;20.10;54.70;;;;;;6086054;23;20014;-61
2023/01/01 06:57:56;;;;;;;2.00;1.23;;;20.10;54.60;;;;;;6086629;23;20018;-61
2023/01/01 07:00:21;;;;;;;2.28;1.35;;;20.10;54.70;;;;;;6087290;23;20177;-62
2023/01/01 07:02:47;;;;;;;1.90;1.13;;;20.10;54.60;;;;;;6085825;23;20011;-61
2023/01/01 07:05:13;;;;;;;2.55;1.20;;;20.10;54.50;;;;;;6084570;23;20025;-62
2023/01/01 07:07:38;;;;;;;2.83;1.10;;;20.10;54.50;;;;;;6084852;23;20037;-61
2023/01/01 07:10:05;;;;;;;1.83;1.00;;;20.10;54.50;;;;;;6061648;23;20049;-65
2023/01/01 07:12:30;;;;;;;2.40;1.17;;;20.10;54.40;;;;;;6086485;23;20014;-59
2023/01/01 07:14:56;;;;;;;2.42;1.40;;;20.10;54.40;;;;;;6084326;23;20018;-61
2023/01/01 07:17:21;;;;;;;4.65;1.50;;;20.10;54.30;;;;;;6085115;23;20018;-62
2023/01/01 07:19:47;;;;;;;2.60;1.20;;;20.10;54.40;;;;;;6087343;23;20010;-60
2023/01/01 07:22:13;;;;;;;1.95;1.00;;;20.10;54.40;;;;;;6085777;23;20829;-61
2023/01/01 07:24:38;;;;;;;1.98;1.00;;;20.10;54.30;;;;;;6085453;23;20024;-61
2023/01/01 07:27:04;;;;;;;1.80;1.20;;;20.10;54.30;;;;;;6084111;23;20089;-62
2023/01/01 07:29:29;;;;;;;1.38;1.27;;;20.10;54.30;;;;;;6086288;23;20015;-62
2023/01/01 07:31:55;;;;;;;3.10;1.20;;;20.10;54.30;;;;;;6084438;23;20015;-61
2023/01/01 07:34:22;;;;;;;1.83;1.30;;;20.10;54.30;;;;;;6086829;23;20014;-61
2023/01/01 07:36:49;;;;;;;3.22;1.30;;;20.10;54.30;;;;;;6084235;23;20085;-59
2023/01/01 07:39:15;;;;;;;2.17;1.15;;;20.10;54.30;;;;;;6084094;23;20025;-59
2023/01/01 07:41:41;;;;;;;3.17;1.00;;;20.10;54.30;;;;;;6084152;23;20015;-63
2023/01/01 07:44:06;;;;;;;2.17;1.08;;;20.10;54.30;;;;;;6084926;23;20022;-62
2023/01/01 07:46:36;;;;;;;2.47;1.00;;;20.00;54.20;;;;;;6084429;23;20513;-63
2023/01/01 07:49:02;;;;;;;2.00;1.20;;;20.00;54.10;;;;;;6084918;23;20073;-65
2023/01/01 07:51:27;;;;;;;2.25;0.90;;;20.00;54.20;;;;;;6085459;23;20018;-62
2023/01/01 07:53:53;;;;;;;2.75;1.10;;;20.00;54.10;;;;;;6084789;23;20022;-63
2023/01/01 07:56:19;;;;;;;1.58;0.98;;;20.00;54.10;;;;;;6085862;23;20749;-61
2023/01/01 07:58:44;;;;;;;1.48;1.00;;;20.00;54.10;;;;;;6060410;23;20754;-62
2023/01/01 08:01:11;;;;;;;2.00;0.90;;;20.00;54.10;;;;;;6086768;23;20014;-62
2023/01/01 08:03:37;;;;;;;1.92;1.10;;;20.00;54.10;;;;;;6086130;23;20022;-61
2023/01/01 08:06:11;;;;;;;2.75;1.15;;;20.00;54.00;;;;;;6084759;23;20082;-62
2023/01/01 08:08:37;;;;;;;2.83;1.25;;;20.00;54.10;;;;;;6084034;23;20141;-62
2023/01/01 08:11:03;;;;;;;2.17;0.98;;;20.00;54.10;;;;;;6085178;23;20053;-63
2023/01/01 08:13:28;;;;;;;1.58;0.88;;;20.00;54.10;;;;;;6084386;23;20018;-61
2023/01/01 08:15:56;;;;;;;2.05;1.00;;;20.00;54.00;;;;;;6084235;23;20081;-64
2023/01/01 08:18:21;;;;;;;2.88;1.08;;;20.00;54.00;;;;;;6085996;23;20448;-62
2023/01/01 08:20:47;;;;;;;2.00;0.95;;;20.00;54.00;;;;;;6084486;23;20025;-62
2023/01/01 08:23:12;;;;;;;2.45;1.05;;;20.00;54.00;;;;;;6085936;23;20022;-62
2023/01/01 08:25:38;;;;;;;3.97;0.95;;;20.00;54.00;;;;;;6085735;23;20339;-61
2023/01/01 08:28:04;;;;;;;1.52;1.10;;;20.00;54.10;;;;;;6085438;23;20092;-61
2023/01/01 08:30:29;;;;;;;1.90;1.08;;;20.00;54.00;;;;;;6085894;23;20011;-62
2023/01/01 08:32:55;;;;;;;3.00;1.20;;;20.00;54.10;;;;;;6084369;23;20018;-62
2023/01/01 08:35:21;;;;;;;2.03;1.00;;;20.00;54.10;;;;;;6084880;23;20121;-62
2023/01/01 08:37:46;;;;;;;2.70;1.30;;;19.90;54.00;;;;;;6085335;23;20105;-63
2023/01/01 08:40:13;;;;;;;2.72;1.00;;;20.00;54.00;;;;;;6084239;23;20090;-62
2023/01/01 08:42:38;;;;;;;2.15;1.08;;;19.90;54.00;;;;;;6084246;23;20018;-61
2023/01/01 08:45:05;;;;;;;2.80;0.90;;;20.00;54.00;;;;;;6086264;23;20025;-62
2023/01/01 08:47:30;;;;;;;3.40;0.80;;;19.90;53.80;;;;;;6060077;23;20061;-62
2023/01/01 08:49:56;;;;;;;4.25;1.27;;;19.90;53.80;;;;;;6086042;23;20105;-61
2023/01/01 08:52:22;;;;;;;3.38;0.95;;;19.90;53.80;;;;;;6083976;23;20390;-62
2023/01/01 08:54:47;;;;;;;3.10;1.00;;;20.00;53.90;;;;;;6084863;23;20023;-61
2023/01/01 08:57:13;;;;;;;2.22;0.85;;;19.90;53.80;;;;;;6084296;23;20061;-61
2023/01/01 08:59:39;;;;;;;3.38;1.30;;;19.90;53.80;;;;;;6083667;23;20137;-60
2023/01/01 09:02:05;;;;;;;8.77;1.23;;;19.90;54.10;;;;;;6085629;23;20032;-62
2023/01/01 09:04:31;;;;;;;5.75;1.27;;;20.10;54.20;;;;;;6060965;23;20045;-62
2023/01/01 09:06:57;;;;;;;8.93;1.50;;;20.70;53.40;;;;;;6086334;23;20014;-61
2023/01/01 09:09:22;;;;;;;7.40;1.00;;;21.40;52.00;;;;;;6080410;23;20481;-66
2023/01/01 09:11:53;;;;;;;4.20;1.30;;;22.00;50.80;;;;;;6082334;23;20052;-62
2023/01/01 09:14:20;;;;;;;12.43;1.25;;;22.60;49.60;;;;;;6087498;23;20018;-61
2023/01/01 09:16:45;;;;;;;3.33;0.90;;;23.00;48.70;;;;;;6083719;23;20024;-61
2023/01/01 09:19:12;;;;;;;5.65;1.20;;;23.10;48.10;;;;;;6086905;23;20018;-62
2023/01/01 09:21:37;;;;;;;3.90;1.35;;;23.10;48.00;;;;;;6085664;23;20094;-62
2023/01/01 09:24:03;;;;;;;5.50;1.13;;;23.10;48.00;;;;;;6085722;23;20816;-62
2023/01/01 09:26:29;;;;;;;4.63;1.08;;;23.10;47.90;;;;;;6086723;23;20019;-63
2023/01/01 09:28:54;;;;;;;4.10;1.30;;;23.20;47.90;;;;;;6083762;23;20019;-62
2023/01/01 09:31:20;;;;;;;3.70;1.20;;;23.20;47.80;;;;;;6086532;23;20019;-60
2023/01/01 09:33:46;;;;;;;4.18;1.08;;;23.10;47.90;;;;;;6062016;23;20028;-62
2023/01/01 09:36:17;;;;;;;4.72;1.40;;;23.00;48.20;;;;;;6086700;23;20886;-65
2023/01/01 09:38:51;;;;;;;4.43;1.10;;;22.90;48.40;;;;;;6086622;23;20019;-62
2023/01/01 09:41:26;;;;;;;3.03;0.90;;;22.70;48.50;;;;;;6085851;23;20025;-61
2023/01/01 09:44:06;;;;;;;1.90;1.00;;;22.70;48.80;;;;;;6087306;23;20014;-60
2023/01/01 09:46:32;;;;;;;3.60;1.00;;;22.60;48.80;;;;;;6084906;23;20022;-63
2023/01/01 09:49:29;;;;;;;4.18;1.02;;;22.50;49.10;;;;;;6086156;23;20018;-62
2023/01/01 09:52:00;;;;;;;4.35;1.15;;;22.50;49.10;;;;;;6086377;23;20109;-63
2023/01/01 09:54:52;;;;;;;2.70;1.20;;;22.50;49.40;;;;;;6084865;23;20151;-61
2023/01/01 09:57:18;;;;;;;2.63;1.15;;;22.50;49.60;;;;;;6086274;23;20188;-62
2023/01/01 09:59:44;;;;;;;4.07;1.10;;;22.50;49.80;;;;;;6085864;23;20483;-63
2023/01/01 10:02:32;;;;;;;3.95;1.00;;;22.40;49.80;;;;;;6085036;23;20018;-60
2023/01/01 10:05:19;;;;;;;3.30;0.95;;;22.50;50.00;;;;;;6085742;23;20080;-61
2023/01/01 10:08:08;;;;;;;2.90;0.90;;;22.50;50.20;;;;;;6086349;23;20089;-61
2023/01/01 10:10:48;;;;;;;5.60;1.17;;;22.50;50.20;;;;;;6086730;23;20361;-61
2023/01/01 10:13:35;;;;;;;3.38;1.20;;;22.50;50.30;;;;;;6085043;23;20022;-64
2023/01/01 10:16:11;;;;;;;5.22;1.08;;;22.50;50.30;;;;;;6087045;23;20016;-61
2023/01/01 10:18:39;;;;;;;4.05;0.90;;;22.50;50.40;;;;;;6085754;23;20019;-62
2023/01/01 10:21:14;;;;;;;3.67;1.10;;;22.50;50.30;;;;;;6060439;23;20049;-62
2023/01/01 10:23:55;;;;;;;3.25;0.85;;;22.50;50.30;;;;;;6084801;23;20116;-61
2023/01/01 10:26:25;;;;;;;4.72;1.20;;;22.50;50.40;;;;;;6083920;23;20024;-61
2023/01/01 10:29:10;;;;;;;;;;;22.60;50.40;;;;;;6084527;23;20022;-62
2023/01/01 10:31:39;;;;;;;5.55;1.10;;;22.60;50.40;;;;;;6083121;23;20598;-61
2023/01/01 10:34:21;;;;;;;4.05;1.33;;;22.50;50.40;;;;;;6084878;23;20067;-63
2023/01/01 10:36:48;;;;;;;2.38;1.10;;;22.60;50.30;;;;;;6085360;23;20025;-61
2023/01/01 10:39:16;;;;;;;3.05;1.20;;;22.60;50.30;;;;;;6086041;23;20447;-62
2023/01/01 10:41:42;;;;;;;3.75;0.95;;;22.60;50.30;;;;;;6085148;23;20081;-61
2023/01/01 10:44:10;;;;;;;5.30;1.33;;;22.60;50.30;;;;;;6085014;23;20077;-61
2023/01/01 10:46:45;;;;;;;2.83;1.05;;;22.60;50.30;;;;;;6083455;23;20018;-61
2023/01/01 10:49:12;;;;;;;5.53;1.10;;;22.60;50.30;;;;;;6086524;23;20042;-62
2023/01/01 10:51:46;;;;;;;2.47;0.90;;;22.60;50.40;;;;;;6086120;23;20014;-62
2023/01/01 10:54:29;;;;;;;2.10;1.00;;;22.60;50.40;;;;;;6083812;23;20025;-60
2023/01/01 10:56:55;;;;;;;4.47;1.30;;;22.60;50.40;;;;;;6083655;23;20093;-65
2023/01/01 10:59:40;;;;;;;3.70;1.00;;;22.70;50.40;;;;;;6060508;23;20057;-63
2023/01/01 11:02:21;;;;;;;6.18;1.30;;;22.70;50.40;;;;;;6085708;23;20036;-62
2023/01/01 11:04:48;;;;;;;4.07;1.05;;;22.70;50.50;;;;;;6086274;23;20025;-62
2023/01/01 11:07:33;;;;;;;3.88;1.70;;;22.70;50.50;;;;;;6084028;23;20105;-60
2023/01/01 11:10:02;;;;;;;3.42;1.30;;;22.70;50.40;;;;;;6086494;23;20015;-65
2023/01/01 11:12:36;;;;;;;2.63;1.10;;;22.70;50.50;;;;;;6083582;23;20025;-64
2023/01/01 11:15:04;;;;;;;2.58;1.05;;;22.70;50.40;;;;;;6085180;23;20018;-65
2023/01/01 11:17:33;;;;;;;3.03;1.00;;;22.70;50.40;;;;;;6082539;23;20027;-61
2023/01/01 11:20:00;;;;;;;5.32;0.98;;;22.70;50.60;;;;;;6083845;23;20018;-62
2023/01/01 11:22:51;;;;;;;4.50;1.00;;;22.70;50.80;;;;;;6083783;23;20019;-64
2023/01/01 11:25:25;;;;;;;3.13;1.17;;;22.80;51.00;;;;;;6084797;23;20018;-65
2023/01/01 11:27:52;;;;;;;3.22;1.00;;;22.80;50.90;;;;;;6084448;23;20053;-62
2023/01/01 11:30:24;;;;;;;2.95;1.00;;;22.80;50.80;;;;;;6083097;23;20018;-63
2023/01/01 11:32:59;;;;;;;5.13;1.15;;;22.80;50.80;;;;;;6079372;23;20025;-63
2023/01/01 11:35:28;;;;;;;3.53;0.93;;;22.80;50.70;;;;;;6058622;23;20073;-62
2023/01/01 11:37:56;;;;;;;6.85;1.52;;;22.80;50.70;;;;;;6082620;23;20019;-63
2023/01/01 11:40:36;;;;;;;2.90;0.90;;;22.90;50.80;;;;;;6083230;23;20085;-61
2023/01/01 11:43:04;;;;;;;3.90;1.10;;;22.90;50.70;;;;;;6059553;23;20058;-63
2023/01/01 11:45:34;;;;;;;3.17;1.35;;;22.90;50.70;;;;;;6059503;23;20029;-65
2023/01/01 11:48:11;;;;;;;4.85;1.13;;;22.90;50.70;;;;;;6034546;23;20026;-61
2023/01/01 11:50:48;;;;;;;6.57;1.33;;;22.90;50.60;;;;;;6082112;23;20392;-62
2023/01/01 11:53:23;;;;;;;5.75;1.38;;;22.80;50.70;;;;;;6084504;23;20014;-61
2023/01/01 11:55:57;;;;;;;4.63;1.27;;;22.90;50.80;;;;;;6083095;23;20014;-62
2023/01/01 11:58:42;;;;;;;7.30;2.00;;;22.90;50.80;;;;;;6082476;23;20025;-63
2023/01/01 12:01:19;;;;;;;5.88;1.50;;;23.00;50.90;;;;;;6077044;23;20819;-63
2023/01/01 12:03:52;;;;;;;3.25;1.00;;;22.90;51.00;;;;;;6082085;23;20747;-63
2023/01/01 12:06:46;;;;;;;4.18;1.30;;;23.00;51.00;;;;;;6082597;23;20021;-62
2023/01/01 12:09:44;;;;;;;3.38;1.23;;;23.00;50.70;;;;;;6081827;23;20447;-62
2023/01/01 12:12:26;;;;;;;6.18;1.30;;;23.00;50.80;;;;;;6079854;23;20025;-62
2023/01/01 12:15:02;;;;;;;7.15;1.58;;;23.00;50.80;;;;;;6086552;23;20034;-63
2023/01/01 12:17:53;;;;;;;11.52;1.42;;;22.90;50.70;;;;;;6082832;23;20014;-62
2023/01/01 12:20:26;;;;;;;8.40;1.30;;;22.90;50.50;;;;;;6060950;23;20010;-63
2023/01/01 12:22:57;;;;;;;6.22;1.40;;;22.90;50.50;;;;;;6082872;23;20018;-61
2023/01/01 12:25:25;;;;;;;;;;;22.90;50.60;;;;;;6083611;23;20029;-61
2023/01/01 12:28:23;;;;;;;5.72;1.27;;;22.80;50.60;;;;;;6082618;23;19924;-62
2023/01/01 12:31:26;;;;;;;7.25;1.30;;;22.90;50.90;;;;;;6073202;23;20030;-62
2023/01/01 12:34:34;;;;;;;5.55;1.48;;;22.90;50.80;;;;;;6082471;23;20023;-63
2023/01/01 12:37:25;;;;;;;4.38;1.15;;;22.90;50.70;;;;;;6084765;23;20082;-63
2023/01/01 12:40:28;;;;;;;5.25;1.33;;;22.90;50.70;;;;;;6085496;23;20058;-64
2023/01/01 12:43:11;;;;;;;5.07;1.20;;;22.90;50.70;;;;;;6086061;23;20021;-63
2023/01/01 12:46:04;;;;;;;7.72;1.50;;;22.90;50.80;;;;;;6087246;23;20021;-63
2023/01/01 12:49:08;;;;;;;3.35;1.50;;;22.90;50.90;;;;;;6085689;23;20029;-61
2023/01/01 12:51:46;;;;;;;6.03;1.48;;;22.90;50.80;;;;;;6086023;23;20046;-62
2023/01/01 12:54:39;;;;;;;6.72;1.40;;;22.90;50.90;;;;;;6087527;23;20022;-62
2023/01/01 12:57:10;;;;;;;3.85;1.20;;;22.90;50.80;;;;;;6088289;23;20029;-63
2023/01/01 12:59:39;;;;;;;7.95;1.45;;;22.90;50.70;;;;;;6086860;23;20581;-63
2023/01/01 13:02:22;;;;;;;3.63;1.23;;;22.90;50.70;;;;;;6087230;23;20011;-65
2023/01/01 13:04:51;;;;;;;2.60;1.15;;;23.00;50.70;;;;;;6088885;23;20014;-65
2023/01/01 13:07:24;;;;;;;4.38;1.17;;;22.90;50.60;;;;;;6086727;23;20014;-64
2023/01/01 13:09:51;;;;;;;5.10;1.05;;;23.00;50.60;;;;;;6088655;23;20119;-63